createdAt,value
2018-11-27T00:02:07.011Z,3.87
2018-11-27T00:07:11.705Z,3.82
2018-11-27T00:12:16.321Z,3.78
2018-11-27T00:17:21.393Z,3.76
2018-11-27T00:22:26.226Z,3.81
2018-11-27T00:27:33.698Z,3.75
2018-11-27T00:32:39.128Z,3.76
2018-11-27T00:43:18.795Z,3.75
2018-11-27T00:48:23.363Z,3.73
2018-11-27T00:53:28.729Z,3.68
2018-11-27T00:58:33.259Z,3.68
2018-11-27T01:03:37.902Z,3.68
2018-11-27T01:08:42.892Z,3.75
2018-11-27T01:13:47.709Z,3.69
2018-11-27T01:18:52.682Z,3.59
2018-11-27T01:23:59.538Z,3.63
2018-11-27T01:29:05.431Z,3.65
2018-11-27T01:34:11.068Z,3.52
2018-11-27T01:39:21.199Z,3.53
2018-11-27T01:44:26.843Z,3.51
2018-11-27T01:49:32.491Z,3.42
2018-11-27T01:54:36.867Z,3.45
2018-11-27T01:59:42.306Z,3.41
2018-11-27T02:04:48.510Z,3.49
2018-11-27T02:09:53.256Z,3.47
2018-11-27T02:14:57.761Z,3.44
2018-11-27T02:20:02.478Z,3.50
2018-11-27T02:25:10.656Z,3.55
2018-11-27T02:30:16.579Z,3.44
2018-11-27T02:35:23.475Z,3.53
2018-11-27T02:40:27.935Z,3.43
2018-11-27T02:45:32.450Z,3.47
2018-11-27T02:50:37.030Z,3.48
2018-11-27T02:55:41.510Z,3.35
2018-11-27T03:00:46.110Z,3.37
2018-11-27T03:05:50.926Z,3.37
2018-11-27T03:10:55.808Z,3.33
2018-11-27T03:16:01.415Z,3.38
2018-11-27T03:21:06.803Z,3.39
2018-11-27T03:26:11.300Z,3.33
2018-11-27T03:31:15.897Z,3.28
2018-11-27T03:36:20.552Z,3.26
2018-11-27T03:41:25.692Z,3.29
2018-11-27T03:46:43.578Z,3.26
2018-11-27T03:51:48.368Z,3.20
2018-11-27T03:56:52.922Z,3.17
2018-11-27T04:01:57.790Z,3.10
2018-11-27T04:07:03.116Z,3.10
2018-11-27T04:12:07.681Z,3.09
2018-11-27T04:17:12.315Z,3.14
2018-11-27T04:22:17.154Z,3.16
2018-11-27T04:27:21.591Z,3.11
2018-11-27T04:32:26.265Z,3.14
2018-11-27T04:37:30.903Z,3.13
2018-11-27T04:42:35.631Z,3.06
2018-11-27T04:47:40.139Z,2.95
2018-11-27T04:52:44.825Z,2.96
2018-11-27T04:57:54.371Z,2.88
2018-11-27T05:02:59.873Z,2.73
2018-11-27T05:08:04.325Z,2.67
2018-11-27T05:13:08.862Z,2.72
2018-11-27T05:18:13.206Z,2.73
2018-11-27T05:23:17.542Z,2.52
2018-11-27T05:28:22.188Z,2.41
2018-11-27T05:33:26.813Z,2.39
2018-11-27T05:38:31.629Z,2.28
2018-11-27T05:43:36.083Z,2.24
2018-11-27T05:48:40.914Z,2.26
2018-11-27T05:53:45.694Z,2.23
2018-11-27T05:58:50.532Z,2.25
2018-11-27T06:03:55.456Z,2.16
2018-11-27T06:08:59.976Z,2.12
2018-11-27T06:14:05.897Z,2.08
2018-11-27T06:19:10.914Z,2.02
2018-11-27T06:24:16.227Z,2.06
2018-11-27T06:29:26.723Z,2.06
2018-11-27T06:34:31.652Z,2.04
2018-11-27T06:39:36.232Z,2.02
2018-11-27T06:44:41.114Z,2.02
2018-11-27T06:49:45.588Z,1.99
2018-11-27T06:54:51.912Z,1.88
2018-11-27T06:59:58.332Z,1.81
2018-11-27T07:05:02.799Z,1.76
2018-11-27T07:10:25.661Z,1.76
2018-11-27T07:15:30.281Z,1.84
2018-11-27T07:20:57.111Z,1.85
2018-11-27T07:26:01.547Z,1.78
2018-11-27T07:31:06.112Z,1.76
2018-11-27T07:36:10.427Z,1.81
2018-11-27T07:41:14.984Z,1.86
2018-11-27T07:46:19.367Z,1.91
2018-11-27T07:51:24.024Z,1.94
2018-11-27T07:56:28.692Z,1.95
2018-11-27T08:01:35.067Z,1.89
2018-11-27T08:06:40.187Z,1.97
2018-11-27T08:11:44.860Z,1.87
2018-11-27T08:16:49.265Z,1.80
2018-11-27T08:21:53.813Z,1.81
2018-11-27T08:26:58.289Z,1.86
2018-11-27T08:32:02.878Z,1.88
2018-11-27T08:37:07.442Z,1.98
2018-11-27T08:42:11.925Z,1.99
2018-11-27T08:47:16.454Z,2.13
2018-11-27T08:52:20.990Z,2.13
2018-11-27T08:57:25.388Z,2.14
2018-11-27T09:02:30.003Z,2.18
2018-11-27T09:07:34.423Z,2.21
2018-11-27T09:12:38.853Z,2.20
2018-11-27T09:17:44.926Z,2.08
2018-11-27T09:22:49.476Z,2.11
2018-11-27T09:27:59.244Z,2.12
2018-11-27T09:33:03.911Z,2.22
2018-11-27T09:38:09.090Z,2.31
2018-11-27T09:43:13.589Z,2.40
2018-11-27T09:48:18.418Z,2.49
2018-11-27T09:53:22.883Z,2.48
2018-11-27T09:58:27.638Z,2.60
2018-11-27T10:03:32.396Z,2.64
2018-11-27T10:08:37.131Z,2.63
2018-11-27T10:13:41.640Z,2.67
2018-11-27T10:18:51.013Z,2.68
2018-11-27T10:23:55.441Z,2.56
2018-11-27T10:28:59.901Z,2.38
2018-11-27T10:34:05.956Z,2.33
2018-11-27T10:39:10.293Z,2.29
2018-11-27T10:44:14.833Z,2.23
2018-11-27T10:49:21.113Z,2.32
2018-11-27T10:54:25.549Z,2.48
2018-11-27T10:59:29.914Z,2.62
2018-11-27T11:04:35.893Z,2.59
2018-11-27T11:09:42.017Z,2.76
2018-11-27T11:14:46.686Z,2.95
2018-11-27T11:19:51.113Z,3.13
2018-11-27T11:24:55.510Z,3.24
2018-11-27T11:30:12.080Z,3.41
2018-11-27T11:35:17.504Z,3.48
2018-11-27T11:40:23.988Z,3.55
2018-11-27T11:45:29.200Z,3.58
2018-11-27T11:50:35.151Z,3.57
2018-11-27T11:55:40.344Z,3.65
2018-11-27T12:00:56.248Z,3.67
2018-11-27T12:06:02.055Z,3.34
2018-11-27T12:11:06.476Z,3.17
2018-11-27T12:16:11.858Z,3.04
2018-11-27T12:21:18.308Z,2.94
2018-11-27T12:26:26.609Z,2.88
2018-11-27T12:31:31.327Z,2.87
2018-11-27T12:36:35.728Z,2.62
2018-11-27T12:41:40.177Z,2.58
2018-11-27T12:46:45.490Z,2.49
2018-11-27T12:51:51.084Z,2.45
2018-11-27T12:56:55.740Z,2.43
2018-11-27T13:02:01.112Z,2.40
2018-11-27T13:07:07.060Z,2.37
2018-11-27T13:12:11.814Z,2.38
2018-11-27T13:17:16.384Z,2.47
2018-11-27T13:22:21.420Z,2.44
2018-11-27T13:27:25.736Z,2.48
2018-11-27T13:32:30.825Z,2.50
2018-11-27T13:37:35.169Z,2.45
2018-11-27T13:42:39.915Z,2.42
2018-11-27T13:47:44.813Z,2.34
2018-11-27T13:52:49.126Z,2.31
2018-11-27T13:57:53.435Z,2.33
2018-11-27T14:08:13.904Z,2.50
2018-11-27T14:13:19.211Z,2.58
2018-11-27T14:18:24.025Z,2.49
2018-11-27T14:23:28.406Z,2.49
2018-11-27T14:28:32.763Z,2.47
2018-11-27T14:33:37.145Z,2.39
2018-11-27T14:38:41.769Z,2.44
2018-11-27T14:43:46.093Z,2.26
2018-11-27T14:48:50.445Z,2.13
2018-11-27T14:53:54.687Z,2.14
2018-11-27T14:58:59.224Z,2.17
2018-11-27T15:04:03.961Z,2.12
2018-11-27T15:09:10.282Z,2.08
2018-11-27T15:14:14.606Z,2.04
2018-11-27T15:19:28.210Z,2.02
2018-11-27T15:24:32.767Z,1.91
2018-11-27T15:29:37.357Z,1.85
2018-11-27T15:34:42.121Z,1.86
2018-11-27T15:39:46.969Z,1.82
2018-11-27T15:44:51.460Z,1.77
2018-11-27T15:49:56.016Z,1.76
2018-11-27T15:55:01.775Z,1.71
2018-11-27T16:00:16.135Z,1.71
2018-11-27T16:05:20.651Z,1.71
2018-11-27T16:10:25.190Z,1.67
2018-11-27T16:15:29.823Z,1.68
2018-11-27T16:20:34.358Z,1.65
2018-11-27T16:25:38.903Z,1.59
2018-11-27T16:30:43.238Z,1.54
2018-11-27T16:35:47.575Z,1.52
2018-11-27T16:40:52.086Z,1.53
2018-11-27T16:45:56.393Z,1.54
2018-11-27T16:51:00.897Z,1.54
2018-11-27T16:56:06.414Z,1.61
2018-11-27T17:01:12.339Z,1.63
2018-11-27T17:06:18.169Z,1.59
2018-11-27T17:11:24.005Z,1.55
2018-11-27T17:16:28.780Z,1.50
2018-11-27T17:21:33.627Z,1.52
2018-11-27T17:26:40.563Z,1.56
2018-11-27T17:31:45.318Z,1.55
2018-11-27T17:36:50.072Z,1.49
2018-11-27T17:41:54.966Z,1.47
2018-11-27T17:46:59.300Z,1.45
2018-11-27T17:52:04.030Z,1.47
2018-11-27T17:57:08.693Z,1.47
2018-11-27T18:02:13.180Z,1.48
2018-11-27T18:07:17.784Z,1.49
2018-11-27T18:12:22.244Z,1.53
2018-11-27T18:17:26.886Z,1.53
2018-11-27T18:22:31.562Z,1.52
2018-11-27T18:27:41.361Z,1.47
2018-11-27T18:32:45.854Z,1.47
2018-11-27T18:37:51.614Z,1.45
2018-11-27T18:42:56.157Z,1.40
2018-11-27T18:48:02.265Z,1.33
2018-11-27T18:53:07.075Z,1.33
2018-11-27T18:58:11.567Z,1.33
2018-11-27T19:03:16.733Z,1.34
2018-11-27T19:08:25.384Z,1.29
2018-11-27T19:13:29.914Z,1.30
2018-11-27T19:18:34.674Z,1.28
2018-11-27T19:23:39.170Z,1.26
2018-11-27T19:28:44.126Z,1.15
2018-11-27T19:33:49.040Z,1.00
2018-11-27T19:38:53.690Z,0.94
2018-11-27T19:43:58.051Z,0.88
2018-11-27T19:49:02.702Z,0.87
2018-11-27T19:54:07.842Z,0.84
2018-11-27T19:59:12.328Z,0.74
2018-11-27T20:04:17.071Z,0.66
2018-11-27T20:09:22.118Z,0.59
2018-11-27T20:14:26.907Z,0.56
2018-11-27T20:19:31.759Z,0.57
2018-11-27T20:24:36.592Z,0.54
2018-11-27T20:29:41.370Z,0.48
2018-11-27T20:34:46.345Z,0.48
2018-11-27T20:39:55.886Z,0.49
2018-11-27T20:45:00.713Z,0.50
2018-11-27T20:50:12.014Z,0.48
2018-11-27T20:55:11.632Z,0.47
2018-11-27T21:00:21.709Z,0.43
2018-11-27T21:05:26.389Z,0.42
2018-11-27T21:10:40.154Z,0.42
2018-11-27T21:15:45.357Z,0.42
2018-11-27T21:20:49.935Z,0.43
2018-11-27T21:25:56.470Z,0.37
2018-11-27T21:30:59.708Z,0.29
2018-11-27T21:36:04.827Z,0.31
2018-11-27T21:41:09.322Z,0.33
2018-11-27T21:46:14.007Z,0.32
2018-11-27T21:51:19.400Z,0.34
2018-11-27T21:56:24.074Z,0.38
2018-11-27T22:01:29.255Z,0.34
2018-11-27T22:06:33.922Z,0.29
2018-11-27T22:11:38.421Z,0.28
2018-11-27T22:16:42.719Z,0.30
2018-11-27T22:21:47.188Z,0.17
2018-11-27T22:26:51.885Z,0.14
2018-11-27T22:31:56.425Z,0.19
2018-11-27T22:37:00.964Z,0.24
2018-11-27T22:42:05.611Z,0.21
2018-11-27T22:47:19.413Z,0.20
2018-11-27T22:52:24.108Z,0.06
2018-11-27T22:57:28.813Z,0.00
2018-11-27T23:02:33.491Z,0.02
2018-11-27T23:07:41.988Z,-0.02
2018-11-27T23:12:46.611Z,-0.09
2018-11-27T23:18:00.329Z,-0.17
2018-11-27T23:23:05.676Z,-0.21
2018-11-27T23:28:29.268Z,-0.26
2018-11-27T23:33:34.051Z,-0.13
2018-11-27T23:38:38.526Z,-0.17
2018-11-27T23:43:43.095Z,-0.20
2018-11-27T23:48:48.114Z,-0.18
2018-11-27T23:53:52.541Z,-0.15
2018-11-27T23:58:57.127Z,-0.14
